GOSP

Podor Airport

Podor, Senegal
METAR GOSP 201500Z 18002KT CAVOK 36/21 Q1010
Observed Flight Rules
Aug-20 @ 15:00 UTC (an hour ago) Visual Flight Rules
Wind Visibility Clouds
180° at 2 knots 10,000+ meters
  • Clear skies
Temperatures Readings
Current 36°C / 97°F
Dewpoint 21°C / 70°F
Humidity 42%
Altimeter 29.82" Hg
Pressure 1010 hPa
Elevation 7
METAR GOSP 201500Z 18002KT CAVOK 36/21 Q1010
Observed Flight Rules
Aug-20 @ 15:00 UTC
(an hour ago)
VFR
Wind Visibility
180° at 2 knots 10,000+ meters
Clouds
  • Clear skies
Temperature Dewpoint
36°C / 97°F 21°C / 70°F
Humidity Altimeter Pressure
42% 29.82" Hg 1010 hPa